createdAt,value
2017-12-30T00:00:01.096Z,1.10
2017-12-30T00:02:35.373Z,0.90
2017-12-30T00:05:08.070Z,2.25
2017-12-30T00:07:39.100Z,1.33
2017-12-30T00:10:11.366Z,0.95
2017-12-30T00:12:43.029Z,1.00
2017-12-30T00:15:12.919Z,1.10
2017-12-30T00:17:43.132Z,1.00
2017-12-30T00:20:13.903Z,1.20
2017-12-30T00:22:49.871Z,0.80
2017-12-30T00:25:21.185Z,1.15
2017-12-30T00:27:51.107Z,1.00
2017-12-30T00:30:21.535Z,1.10
2017-12-30T00:32:51.930Z,0.80
2017-12-30T00:35:22.397Z,1.00
2017-12-30T00:37:54.078Z,0.90
2017-12-30T00:40:25.187Z,1.35
2017-12-30T00:42:56.594Z,0.90
2017-12-30T00:45:27.267Z,0.93
2017-12-30T00:47:58.454Z,1.20
2017-12-30T00:50:29.121Z,1.00
2017-12-30T00:53:03.809Z,1.00
2017-12-30T00:55:35.082Z,1.20
2017-12-30T00:58:10.728Z,1.10
2017-12-30T01:00:43.850Z,1.10
2017-12-30T01:03:25.046Z,0.98
2017-12-30T01:06:00.084Z,1.00
2017-12-30T01:08:42.486Z,0.90
2017-12-30T01:11:33.913Z,1.00
2017-12-30T01:14:05.499Z,0.80
2017-12-30T01:16:40.463Z,0.80
2017-12-30T01:19:24.492Z,1.00
2017-12-30T01:21:59.923Z,1.35
2017-12-30T01:24:34.970Z,1.23
2017-12-30T01:27:05.525Z,1.00
2017-12-30T01:29:36.758Z,1.87
2017-12-30T01:32:07.452Z,1.20
2017-12-30T01:34:40.204Z,0.93
2017-12-30T01:37:12.358Z,0.90
2017-12-30T01:39:43.745Z,1.10
2017-12-30T01:42:16.521Z,1.00
2017-12-30T01:44:47.253Z,0.95
2017-12-30T01:47:18.422Z,1.60
2017-12-30T01:49:48.800Z,0.90
2017-12-30T01:52:19.970Z,1.10
2017-12-30T01:54:50.664Z,1.10
2017-12-30T01:57:21.555Z,0.93
2017-12-30T01:59:52.054Z,1.00
2017-12-30T02:02:22.931Z,1.10
2017-12-30T02:04:53.418Z,1.10
2017-12-30T02:07:24.023Z,1.05
2017-12-30T02:09:54.695Z,1.30
2017-12-30T02:12:26.916Z,1.37
2017-12-30T02:14:56.940Z,1.20
2017-12-30T02:17:26.970Z,1.80
2017-12-30T02:19:57.144Z,1.52
2017-12-30T02:22:28.617Z,1.40
2017-12-30T02:25:00.574Z,1.42
2017-12-30T02:27:30.643Z,1.55
2017-12-30T02:30:00.710Z,2.03
2017-12-30T02:32:31.852Z,2.00
2017-12-30T02:35:01.696Z,1.70
2017-12-30T02:37:32.588Z,1.87
2017-12-30T02:40:02.834Z,2.20
2017-12-30T02:42:33.201Z,2.17
2017-12-30T02:45:04.168Z,2.20
2017-12-30T02:47:34.684Z,2.53
2017-12-30T02:50:05.067Z,2.45
2017-12-30T02:52:35.208Z,2.55
2017-12-30T02:55:05.862Z,2.45
2017-12-30T02:57:38.772Z,2.35
2017-12-30T03:00:10.413Z,2.80
2017-12-30T03:02:41.235Z,2.75
2017-12-30T03:05:11.612Z,2.55
2017-12-30T03:07:41.416Z,2.85
2017-12-30T03:10:12.283Z,2.53
2017-12-30T03:12:42.321Z,3.10
2017-12-30T03:15:12.644Z,2.75
2017-12-30T03:17:42.798Z,2.90
2017-12-30T03:20:13.712Z,2.95
2017-12-30T03:22:44.226Z,3.05
2017-12-30T03:25:14.763Z,3.35
2017-12-30T03:27:44.717Z,3.45
2017-12-30T03:30:15.480Z,3.75
2017-12-30T03:32:45.505Z,3.25
2017-12-30T03:35:17.545Z,4.00
2017-12-30T03:37:48.362Z,5.10
2017-12-30T03:40:19.049Z,4.82
2017-12-30T03:42:49.931Z,5.65
2017-12-30T03:45:20.662Z,4.80
2017-12-30T03:47:50.558Z,5.68
2017-12-30T03:50:21.646Z,5.47
2017-12-30T03:52:52.439Z,4.70
2017-12-30T03:55:23.458Z,4.40
2017-12-30T03:57:54.368Z,3.53
2017-12-30T04:00:24.798Z,3.37
2017-12-30T04:02:54.949Z,2.40
2017-12-30T04:05:24.900Z,2.40
2017-12-30T04:07:55.405Z,2.35
2017-12-30T04:10:31.091Z,2.30
2017-12-30T04:13:01.393Z,3.15
2017-12-30T04:15:31.406Z,2.20
2017-12-30T04:18:02.024Z,2.50
2017-12-30T04:20:32.678Z,2.58
2017-12-30T04:23:03.361Z,2.37
2017-12-30T04:25:34.389Z,2.00
2017-12-30T04:28:05.237Z,2.00
2017-12-30T04:30:35.433Z,2.72
2017-12-30T04:33:07.312Z,2.53
2017-12-30T04:35:37.865Z,2.15
2017-12-30T04:38:09.076Z,2.40
2017-12-30T04:40:39.124Z,2.50
2017-12-30T04:43:10.821Z,3.00
2017-12-30T04:45:40.842Z,2.67
2017-12-30T04:48:12.394Z,2.40
2017-12-30T04:50:42.377Z,2.08
2017-12-30T04:53:12.314Z,2.80
2017-12-30T04:55:42.594Z,2.70
2017-12-30T04:58:12.757Z,2.08
2017-12-30T05:00:43.334Z,2.92
2017-12-30T05:03:14.203Z,2.60
2017-12-30T05:05:44.343Z,2.53
2017-12-30T05:08:15.982Z,2.72
2017-12-30T05:10:46.452Z,3.20
2017-12-30T05:13:16.740Z,2.53
2017-12-30T05:15:46.948Z,2.65
2017-12-30T05:18:17.414Z,2.53
2017-12-30T05:20:48.532Z,3.03
2017-12-30T05:23:18.476Z,2.30
2017-12-30T05:25:49.941Z,2.15
2017-12-30T05:28:20.085Z,3.17
2017-12-30T05:30:50.227Z,1.95
2017-12-30T05:33:20.711Z,2.72
2017-12-30T05:35:51.169Z,2.20
2017-12-30T05:38:21.811Z,1.95
2017-12-30T05:40:55.254Z,2.35
2017-12-30T05:43:25.499Z,2.12
2017-12-30T05:45:55.884Z,2.40
2017-12-30T05:48:26.593Z,2.10
2017-12-30T05:50:58.613Z,2.20
2017-12-30T05:53:29.092Z,2.20
2017-12-30T05:56:00.489Z,2.35
2017-12-30T05:58:30.557Z,2.17
2017-12-30T06:01:01.879Z,1.90
2017-12-30T06:03:32.415Z,2.35
2017-12-30T06:06:02.603Z,2.45
2017-12-30T06:08:36.016Z,1.90
2017-12-30T06:11:07.835Z,1.70
2017-12-30T06:13:38.582Z,2.28
2017-12-30T06:16:08.916Z,1.65
2017-12-30T06:18:38.951Z,1.90
2017-12-30T06:21:10.629Z,2.00
2017-12-30T06:23:40.927Z,2.33
2017-12-30T06:26:13.170Z,2.45
2017-12-30T06:28:43.243Z,2.30
2017-12-30T06:31:13.684Z,1.77
2017-12-30T06:33:43.812Z,1.70
2017-12-30T06:36:15.191Z,1.87
2017-12-30T06:38:45.125Z,1.75
2017-12-30T06:41:16.372Z,1.42
2017-12-30T06:43:46.909Z,2.55
2017-12-30T06:46:17.142Z,1.80
2017-12-30T06:48:49.291Z,2.90
2017-12-30T06:51:20.313Z,1.50
2017-12-30T06:53:50.434Z,2.05
2017-12-30T06:56:21.142Z,2.17
2017-12-30T06:58:54.396Z,3.15
2017-12-30T07:01:25.612Z,3.28
2017-12-30T07:03:56.868Z,2.00
2017-12-30T07:06:27.229Z,1.80
2017-12-30T07:08:59.647Z,2.85
2017-12-30T07:11:30.142Z,3.55
2017-12-30T07:14:00.359Z,2.20
2017-12-30T07:16:30.781Z,2.70
2017-12-30T07:19:01.638Z,2.95
2017-12-30T07:21:31.932Z,2.20
2017-12-30T07:24:07.290Z,4.72
2017-12-30T07:26:38.481Z,4.97
2017-12-30T07:29:09.585Z,4.18
2017-12-30T07:31:43.078Z,2.87
2017-12-30T07:34:17.608Z,4.65
2017-12-30T07:36:48.260Z,3.30
2017-12-30T07:39:19.643Z,4.18
2017-12-30T07:41:49.854Z,1.83
2017-12-30T07:44:21.062Z,4.78
2017-12-30T07:46:51.804Z,5.32
2017-12-30T07:49:23.314Z,4.43
2017-12-30T07:51:54.426Z,5.00
2017-12-30T07:54:24.529Z,4.27
2017-12-30T07:56:55.100Z,6.00
2017-12-30T07:59:26.161Z,3.67
2017-12-30T08:01:59.312Z,3.40
2017-12-30T08:04:32.832Z,6.70
2017-12-30T08:07:03.236Z,2.83
2017-12-30T08:09:34.336Z,4.70
2017-12-30T08:12:04.629Z,5.67
2017-12-30T08:14:35.911Z,4.47
2017-12-30T08:17:06.606Z,3.67
2017-12-30T08:19:37.857Z,9.80
2017-12-30T08:22:12.516Z,4.70
2017-12-30T08:24:44.679Z,6.63
2017-12-30T08:27:16.171Z,6.00
2017-12-30T08:29:46.932Z,5.17
2017-12-30T08:32:17.403Z,8.00
2017-12-30T08:34:48.121Z,7.53
2017-12-30T08:37:18.706Z,7.57
2017-12-30T08:39:48.829Z,6.30
2017-12-30T08:42:21.033Z,7.93
2017-12-30T08:44:56.404Z,4.33
2017-12-30T08:47:27.083Z,8.70
2017-12-30T08:49:59.872Z,6.57
2017-12-30T08:52:30.804Z,8.70
2017-12-30T08:55:00.564Z,3.40
2017-12-30T08:57:32.194Z,6.10
2017-12-30T09:00:04.953Z,10.00
2017-12-30T09:02:35.265Z,5.63
2017-12-30T09:05:06.135Z,9.03
2017-12-30T09:07:36.531Z,4.80
2017-12-30T09:10:07.515Z,4.20
2017-12-30T09:12:39.199Z,4.83
2017-12-30T09:15:12.230Z,4.60
2017-12-30T09:17:43.600Z,5.90
2017-12-30T09:20:15.017Z,7.87
2017-12-30T09:22:47.452Z,12.73
2017-12-30T09:25:18.800Z,7.27
2017-12-30T09:27:48.668Z,7.50
2017-12-30T09:30:19.311Z,11.30
2017-12-30T09:32:49.433Z,6.83
2017-12-30T09:35:20.065Z,7.80
2017-12-30T09:37:50.685Z,9.77
2017-12-30T09:40:22.635Z,6.77
2017-12-30T09:42:52.757Z,4.00
2017-12-30T09:45:23.731Z,9.50
2017-12-30T09:47:54.497Z,7.40
2017-12-30T09:50:25.381Z,6.10
2017-12-30T09:52:56.366Z,3.80
2017-12-30T09:55:26.788Z,2.67
2017-12-30T09:57:57.327Z,3.03
2017-12-30T10:00:28.189Z,3.07
2017-12-30T10:03:00.981Z,3.40
2017-12-30T10:06:08.243Z,3.33
2017-12-30T10:08:43.741Z,1.50
2017-12-30T10:11:18.546Z,2.30
2017-12-30T10:13:55.682Z,0.80
2017-12-30T10:16:34.455Z,1.07
2017-12-30T10:19:14.931Z,0.80
2017-12-30T10:21:47.051Z,1.40
2017-12-30T10:24:20.840Z,0.70
2017-12-30T10:26:55.180Z,0.90
2017-12-30T10:29:26.497Z,0.80
2017-12-30T10:32:01.436Z,0.80
2017-12-30T10:34:34.636Z,1.10
2017-12-30T10:37:18.480Z,0.70
2017-12-30T10:39:56.854Z,2.43
2017-12-30T10:42:31.605Z,0.87
2017-12-30T10:45:07.700Z,0.70
2017-12-30T10:47:55.352Z,1.80
2017-12-30T10:53:31.517Z,0.60
2017-12-30T10:56:10.129Z,0.80
2017-12-30T10:58:49.310Z,3.23
2017-12-30T11:01:20.633Z,0.90
2017-12-30T11:03:58.002Z,0.50
2017-12-30T11:06:39.836Z,0.70
2017-12-30T11:09:27.028Z,0.80
2017-12-30T11:12:04.281Z,0.60
2017-12-30T11:20:10.443Z,0.60
2017-12-30T11:22:42.020Z,0.60
2017-12-30T11:25:14.365Z,0.73
2017-12-30T11:27:45.153Z,0.93
2017-12-30T11:30:17.832Z,0.70
2017-12-30T11:32:49.126Z,0.73
2017-12-30T11:35:20.126Z,0.80
2017-12-30T11:37:51.007Z,0.73
2017-12-30T11:40:22.218Z,0.70
2017-12-30T11:42:52.500Z,0.80
2017-12-30T11:45:25.677Z,0.50
2017-12-30T11:47:57.161Z,0.70
2017-12-30T11:50:29.706Z,0.70
2017-12-30T11:53:03.412Z,0.70
2017-12-30T11:55:33.539Z,0.70
2017-12-30T11:58:05.753Z,0.73
2017-12-30T12:00:36.965Z,0.60
2017-12-30T12:03:07.794Z,0.60
2017-12-30T12:05:40.992Z,0.50
2017-12-30T12:08:14.137Z,0.70
2017-12-30T12:10:45.818Z,0.60
2017-12-30T12:13:16.628Z,0.60
2017-12-30T12:15:47.596Z,0.53
2017-12-30T12:18:18.763Z,0.60
2017-12-30T12:23:35.091Z,0.60
2017-12-30T12:26:08.306Z,0.60
2017-12-30T12:28:38.799Z,0.60
2017-12-30T12:31:11.868Z,0.60
2017-12-30T12:33:43.866Z,0.50
2017-12-30T12:36:13.891Z,0.50
2017-12-30T12:38:48.670Z,0.50
2017-12-30T12:41:20.218Z,0.60
2017-12-30T12:43:52.804Z,0.60
2017-12-30T12:46:22.810Z,0.50
2017-12-30T12:48:54.467Z,0.50
2017-12-30T12:51:24.486Z,0.50
2017-12-30T12:53:55.843Z,0.50
2017-12-30T12:56:26.409Z,0.50
2017-12-30T12:58:56.410Z,0.60
2017-12-30T13:01:26.933Z,0.60
2017-12-30T13:03:58.150Z,0.70
2017-12-30T13:06:30.744Z,0.73
2017-12-30T13:09:01.577Z,0.50
2017-12-30T13:11:34.234Z,0.53
2017-12-30T13:14:07.843Z,0.50
2017-12-30T13:16:39.081Z,0.60
2017-12-30T13:19:10.258Z,0.50
2017-12-30T13:21:41.586Z,0.50
2017-12-30T13:24:13.057Z,0.50
2017-12-30T13:26:44.540Z,0.50
2017-12-30T13:29:17.454Z,0.50
2017-12-30T13:31:50.011Z,0.50
2017-12-30T13:34:23.752Z,0.57
2017-12-30T13:36:55.010Z,0.60
2017-12-30T13:39:26.595Z,0.50
2017-12-30T13:41:57.051Z,0.60
2017-12-30T13:44:30.284Z,0.60
2017-12-30T13:47:01.114Z,0.50
2017-12-30T13:49:32.543Z,0.50
2017-12-30T13:52:05.737Z,0.40
2017-12-30T13:54:37.148Z,0.50
2017-12-30T13:57:08.754Z,0.50
2017-12-30T13:59:39.030Z,0.67
2017-12-30T14:02:09.114Z,0.60
2017-12-30T14:04:40.501Z,0.50
2017-12-30T14:07:11.632Z,0.70
2017-12-30T14:09:41.958Z,0.70
2017-12-30T14:12:13.565Z,0.70
2017-12-30T14:14:45.185Z,0.80
2017-12-30T14:17:15.124Z,0.53
2017-12-30T14:19:45.879Z,0.70
2017-12-30T14:22:17.149Z,0.70
2017-12-30T14:24:48.908Z,0.70
2017-12-30T14:27:23.144Z,0.70
2017-12-30T14:29:57.443Z,0.70
2017-12-30T14:32:31.938Z,0.93
2017-12-30T14:35:03.391Z,0.70
2017-12-30T14:37:33.333Z,1.17
2017-12-30T14:40:06.905Z,4.00
2017-12-30T14:42:39.463Z,1.13
2017-12-30T14:45:13.601Z,2.93
2017-12-30T14:47:45.309Z,2.90
2017-12-30T14:50:21.637Z,3.30
2017-12-30T14:52:53.077Z,2.43
2017-12-30T14:55:24.372Z,4.47
2017-12-30T14:57:56.265Z,5.60
2017-12-30T15:00:28.211Z,2.80
2017-12-30T15:03:00.087Z,5.03
2017-12-30T15:05:34.433Z,7.00
2017-12-30T15:08:07.998Z,6.00
2017-12-30T15:10:50.538Z,5.87
2017-12-30T15:13:25.884Z,6.37
2017-12-30T15:16:07.341Z,4.20
2017-12-30T15:21:22.118Z,5.47
2017-12-30T15:24:04.031Z,8.77
2017-12-30T15:29:33.942Z,9.83
2017-12-30T15:32:06.205Z,7.27
2017-12-30T15:34:39.043Z,7.87
2017-12-30T15:37:13.995Z,7.53
2017-12-30T15:39:51.596Z,7.57
2017-12-30T15:42:40.516Z,7.40
2017-12-30T15:45:20.047Z,11.03
2017-12-30T15:48:02.342Z,6.27
2017-12-30T15:53:11.447Z,12.10
2017-12-30T15:55:49.609Z,6.47
2017-12-30T15:58:20.401Z,8.67
2017-12-30T16:00:51.679Z,8.87
2017-12-30T16:03:21.975Z,9.73
2017-12-30T16:05:52.202Z,7.17
2017-12-30T16:08:22.771Z,15.23
2017-12-30T16:10:55.340Z,13.20
2017-12-30T16:13:28.291Z,11.93
2017-12-30T16:15:59.068Z,10.63
2017-12-30T16:18:29.815Z,11.27
2017-12-30T16:21:01.156Z,10.53
2017-12-30T16:23:35.198Z,12.87
2017-12-30T16:26:06.350Z,10.47
2017-12-30T16:28:38.088Z,10.30
2017-12-30T16:31:11.412Z,11.23
2017-12-30T16:33:43.483Z,14.67
2017-12-30T16:36:15.097Z,13.20
2017-12-30T16:38:49.319Z,10.50
2017-12-30T16:41:19.598Z,14.03
2017-12-30T16:43:52.194Z,18.27
2017-12-30T16:46:24.986Z,22.30
2017-12-30T16:48:57.055Z,11.70
2017-12-30T16:51:28.587Z,13.23
2017-12-30T16:54:00.607Z,14.17
2017-12-30T16:56:35.276Z,17.77
2017-12-30T16:59:08.889Z,11.57
2017-12-30T17:01:48.946Z,15.87
2017-12-30T17:04:24.689Z,19.83
2017-12-30T17:10:24.812Z,23.03
2017-12-30T17:13:18.556Z,54.87
2017-12-30T17:16:12.389Z,18.13
2017-12-30T17:18:45.000Z,16.70
2017-12-30T17:21:19.802Z,22.40
2017-12-30T17:24:06.173Z,15.43
2017-12-30T17:26:36.986Z,12.30
2017-12-30T17:29:09.111Z,16.33
2017-12-30T17:31:39.591Z,15.20
2017-12-30T17:34:10.354Z,17.97
2017-12-30T17:36:41.499Z,23.30
2017-12-30T17:39:12.568Z,21.10
2017-12-30T17:41:42.744Z,17.10
2017-12-30T17:44:13.724Z,20.80
2017-12-30T17:46:45.140Z,18.53
2017-12-30T17:49:17.629Z,22.33
2017-12-30T17:51:49.271Z,19.23
2017-12-30T17:54:21.513Z,18.60
2017-12-30T17:56:52.088Z,22.10
2017-12-30T17:59:25.074Z,20.47
2017-12-30T18:01:59.201Z,24.20
2017-12-30T18:04:32.287Z,17.30
2017-12-30T18:07:04.695Z,21.50
2017-12-30T18:09:36.821Z,19.77
2017-12-30T18:12:10.096Z,23.27
2017-12-30T18:14:41.598Z,20.47
2017-12-30T18:17:12.601Z,18.47
2017-12-30T18:19:46.836Z,21.70
2017-12-30T18:22:20.940Z,23.77
2017-12-30T18:24:52.504Z,25.63
2017-12-30T18:27:23.412Z,17.67
2017-12-30T18:29:55.545Z,22.83
2017-12-30T18:32:27.610Z,24.90
2017-12-30T18:34:59.378Z,17.30
2017-12-30T18:37:30.361Z,22.47
2017-12-30T18:40:01.331Z,21.73
2017-12-30T18:42:40.153Z,20.33
2017-12-30T18:45:16.860Z,21.80
2017-12-30T18:47:52.617Z,18.60
2017-12-30T18:50:24.620Z,22.57
2017-12-30T18:52:57.758Z,20.83
2017-12-30T18:55:29.526Z,14.97
2017-12-30T18:58:01.301Z,24.73
2017-12-30T19:00:33.923Z,18.07
2017-12-30T19:03:06.116Z,24.47
2017-12-30T19:05:39.839Z,19.27
2017-12-30T19:08:13.268Z,19.90
2017-12-30T19:10:44.563Z,22.23
2017-12-30T19:13:20.511Z,23.53
2017-12-30T19:15:52.529Z,15.63
2017-12-30T19:18:24.924Z,20.53
2017-12-30T19:21:00.035Z,18.77
2017-12-30T19:23:31.679Z,16.93
2017-12-30T19:26:03.072Z,22.50
2017-12-30T19:28:35.091Z,22.07
2017-12-30T19:31:07.052Z,22.10
2017-12-30T19:33:39.943Z,21.97
2017-12-30T19:36:11.704Z,21.63
2017-12-30T19:38:42.025Z,17.97
2017-12-30T19:41:18.102Z,22.93
2017-12-30T19:43:48.684Z,28.00
2017-12-30T19:46:24.659Z,20.40
2017-12-30T19:48:56.445Z,21.33
2017-12-30T19:51:28.055Z,28.60
2017-12-30T19:54:02.168Z,21.97
2017-12-30T19:56:32.867Z,23.27
2017-12-30T19:59:07.470Z,22.27
2017-12-30T20:01:38.993Z,29.93
2017-12-30T20:04:12.633Z,18.33
2017-12-30T20:06:43.894Z,25.17
2017-12-30T20:09:16.742Z,16.83
2017-12-30T20:11:48.176Z,20.60
2017-12-30T20:14:22.267Z,20.40
2017-12-30T20:16:59.125Z,23.33
2017-12-30T20:19:29.577Z,30.53
2017-12-30T20:22:02.623Z,16.83
2017-12-30T20:24:36.665Z,25.27
2017-12-30T20:27:10.903Z,23.37
2017-12-30T20:29:44.097Z,23.97
2017-12-30T20:32:15.764Z,16.33
2017-12-30T20:34:47.926Z,15.47
2017-12-30T20:37:21.005Z,16.60
2017-12-30T20:39:51.090Z,21.67
2017-12-30T20:42:22.215Z,19.93
2017-12-30T20:44:54.914Z,14.30
2017-12-30T20:47:27.185Z,18.63
2017-12-30T20:49:58.257Z,18.93
2017-12-30T20:52:29.154Z,19.97
2017-12-30T20:54:59.162Z,19.10
2017-12-30T20:57:30.801Z,25.93
2017-12-30T21:00:13.254Z,15.97
2017-12-30T21:02:44.857Z,18.93
2017-12-30T21:05:23.292Z,19.53
2017-12-30T21:07:57.199Z,16.67
2017-12-30T21:10:33.334Z,20.13
2017-12-30T21:13:06.794Z,18.80
2017-12-30T21:15:39.417Z,18.77
2017-12-30T21:18:12.195Z,18.33
2017-12-30T21:20:42.999Z,18.93
2017-12-30T21:23:13.324Z,18.90
2017-12-30T21:25:45.384Z,17.33
2017-12-30T21:28:19.444Z,22.70
2017-12-30T21:30:50.985Z,18.17
2017-12-30T21:33:23.759Z,16.90
2017-12-30T21:35:59.406Z,18.10
2017-12-30T21:38:40.093Z,18.63
2017-12-30T21:41:10.736Z,16.87
2017-12-30T21:43:44.799Z,19.63
2017-12-30T21:46:17.344Z,23.50
2017-12-30T21:48:50.502Z,17.73
2017-12-30T21:51:23.551Z,20.63
2017-12-30T21:53:57.116Z,20.10
2017-12-30T21:56:30.262Z,19.57
2017-12-30T21:59:02.186Z,16.40
2017-12-30T22:01:36.759Z,18.80
2017-12-30T22:04:07.573Z,23.10
2017-12-30T22:06:41.559Z,21.67
2017-12-30T22:09:15.622Z,13.43
2017-12-30T22:11:48.005Z,19.43
2017-12-30T22:14:20.676Z,23.17
2017-12-30T22:16:54.234Z,14.30
2017-12-30T22:19:28.175Z,15.17
2017-12-30T22:21:59.194Z,16.20
2017-12-30T22:24:31.480Z,11.97
2017-12-30T22:27:03.646Z,14.10
2017-12-30T22:29:34.447Z,17.30
2017-12-30T22:32:06.272Z,18.20
2017-12-30T22:34:48.302Z,17.33
2017-12-30T22:37:20.159Z,15.30
2017-12-30T22:39:51.302Z,17.00
2017-12-30T22:42:25.264Z,16.00
2017-12-30T22:44:56.406Z,14.93
2017-12-30T22:47:27.276Z,20.53
2017-12-30T22:49:57.495Z,15.70
2017-12-30T22:52:30.199Z,16.80
2017-12-30T22:55:01.725Z,13.53
2017-12-30T22:57:34.907Z,15.37
2017-12-30T23:00:09.111Z,14.90
2017-12-30T23:02:40.049Z,16.27
2017-12-30T23:05:15.682Z,10.40
2017-12-30T23:07:48.309Z,13.77
2017-12-30T23:10:24.688Z,14.47
2017-12-30T23:12:57.067Z,17.00
2017-12-30T23:15:30.243Z,16.20
2017-12-30T23:18:02.145Z,17.03
2017-12-30T23:20:33.638Z,14.70
2017-12-30T23:23:03.542Z,17.80
2017-12-30T23:25:36.311Z,21.90
2017-12-30T23:28:07.460Z,15.57
2017-12-30T23:30:39.752Z,20.50
2017-12-30T23:33:10.531Z,16.80
2017-12-30T23:35:42.924Z,14.30
2017-12-30T23:38:14.587Z,20.60
2017-12-30T23:40:48.810Z,14.00
2017-12-30T23:43:19.962Z,13.90
2017-12-30T23:45:53.086Z,15.57
2017-12-30T23:48:25.111Z,17.53
2017-12-30T23:50:56.340Z,14.23
2017-12-30T23:53:27.637Z,15.33
2017-12-30T23:55:59.218Z,17.57
2017-12-30T23:58:30.063Z,18.10
